PARDEE (PAR)

Elevation: 568' · MOKELUMNE R basin · Operator: East Bay Municipal Utility District

Provisional data, subject to change.
Query executed Sunday at 1:50:37   clock

Select a sensor type for a plot of data.
Note: Reservoir Flows are daily averages.

Earlier

Date RES ELE    STORAGE    RES CHG    OUTFLOW    INFLOW    PPT INC   
 FEET   AF   AF   CFS   CFS   INCHES  
01/02/2015 553.38 167814 -440 711 627 0.00
01/03/2015 553.12 167294 -520 686 272 0.00
01/04/2015 553.45 167950 656 140 76 0.00
01/05/2015 553.24 167538 -412 710 643 0.00
01/06/2015 552.99 167022 -516 736 316 0.00
01/07/2015 552.67 166401 -621 773 333 0.00
01/08/2015 552.38 165808 -593 781 317 0.00
01/09/2015 552.09 165247 -561 776 317 0.00
01/10/2015 552.25 165565 318 204 87 0.00
01/11/2015 552.26 165581 16 209 308 0.00
01/12/2015 552.20 165458 -123 304 235 0.00
01/13/2015 552.14 165339 -119 298 281 0.00
01/14/2015 552.10 165263 -76 250 216 0.00
01/15/2015 552.09 165231 -32 226 231 0.00
01/16/2015 552.10 165263 32 217 222 0.00
01/17/2015 552.09 165231 -32 225 263 0.00
01/18/2015 552.10 165263 32 219 234 0.01
01/19/2015 552.09 165231 -32 221 215 0.00
01/20/2015 552.07 165191 -40 221 224 0.01
01/21/2015 552.11 165279 88 193 201 0.00
01/22/2015 552.19 165446 167 199 233 0.00
01/23/2015 552.26 165581 135 217 253 0.00
01/24/2015 552.25 165565 -16 219 280 0.00
01/25/2015 552.24 165538 -27 216 235 0.01
01/26/2015 552.25 165550 12 204 194 0.00
01/27/2015 552.26 165581 31 202 218 0.00
01/28/2015 552.25 165550 -31 205 217 0.00
01/29/2015 552.23 165522 -28 229 221 0.00
01/30/2015 552.25 165550 28 229 232 --
01/31/2015 -- -- -- 221 247 --
02/01/2015 -- -- -- -- -- --

Later | Latest

Warning! This data is preliminary and subject to revision.

Show PAR Map | Plot PAR Data | 1 Month PAR Data | Real-Time PAR Data | PAR Info